sensor_id;sensor_type;location;lat;lon;timestamp;P1;durP1;ratioP1;P2;durP2;ratioP2
31210;SDS011;17836;50.948;3.946;2022-09-12T00:00:21;9.52;;;8.77;;
31210;SDS011;17836;50.948;3.946;2022-09-12T00:02:50;9.82;;;8.93;;
31210;SDS011;17836;50.948;3.946;2022-09-12T00:05:15;10.15;;;9.35;;
31210;SDS011;17836;50.948;3.946;2022-09-12T00:07:40;9.73;;;8.93;;
31210;SDS011;17836;50.948;3.946;2022-09-12T00:10:05;9.40;;;8.60;;
31210;SDS011;17836;50.948;3.946;2022-09-12T00:12:31;9.48;;;8.52;;
31210;SDS011;17836;50.948;3.946;2022-09-12T00:14:57;8.85;;;7.93;;
31210;SDS011;17836;50.948;3.946;2022-09-12T00:17:23;9.45;;;8.48;;
31210;SDS011;17836;50.948;3.946;2022-09-12T00:19:48;10.00;;;9.10;;
31210;SDS011;17836;50.948;3.946;2022-09-12T00:22:13;9.82;;;9.13;;
31210;SDS011;17836;50.948;3.946;2022-09-12T00:24:38;8.77;;;7.97;;
31210;SDS011;17836;50.948;3.946;2022-09-12T00:27:04;9.98;;;7.57;;
31210;SDS011;17836;50.948;3.946;2022-09-12T00:29:30;9.30;;;8.50;;
31210;SDS011;17836;50.948;3.946;2022-09-12T00:31:55;9.70;;;9.00;;
31210;SDS011;17836;50.948;3.946;2022-09-12T00:34:20;10.50;;;8.87;;
31210;SDS011;17836;50.948;3.946;2022-09-12T00:36:45;8.80;;;8.10;;
31210;SDS011;17836;50.948;3.946;2022-09-12T00:39:13;8.77;;;8.07;;
31210;SDS011;17836;50.948;3.946;2022-09-12T00:41:39;8.50;;;7.80;;
31210;SDS011;17836;50.948;3.946;2022-09-12T00:46:46;9.77;;;8.98;;
31210;SDS011;17836;50.948;3.946;2022-09-12T00:49:31;10.30;;;8.27;;
31210;SDS011;17836;50.948;3.946;2022-09-12T00:52:03;10.77;;;8.70;;
31210;SDS011;17836;50.948;3.946;2022-09-12T00:54:31;9.43;;;8.30;;
31210;SDS011;17836;50.948;3.946;2022-09-12T00:57:00;9.23;;;7.57;;
31210;SDS011;17836;50.948;3.946;2022-09-12T00:59:30;9.57;;;8.75;;
31210;SDS011;17836;50.948;3.946;2022-09-12T01:01:56;9.45;;;8.55;;
31210;SDS011;17836;50.948;3.946;2022-09-12T01:04:21;9.60;;;8.48;;
31210;SDS011;17836;50.948;3.946;2022-09-12T01:06:48;8.00;;;7.32;;
31210;SDS011;17836;50.948;3.946;2022-09-12T01:09:16;9.13;;;8.00;;
31210;SDS011;17836;50.948;3.946;2022-09-12T01:11:41;8.80;;;7.97;;
31210;SDS011;17836;50.948;3.946;2022-09-12T01:14:10;8.18;;;7.57;;
31210;SDS011;17836;50.948;3.946;2022-09-12T01:16:35;8.63;;;7.78;;
31210;SDS011;17836;50.948;3.946;2022-09-12T01:21:38;9.77;;;8.73;;
31210;SDS011;17836;50.948;3.946;2022-09-12T01:24:32;9.77;;;8.98;;
31210;SDS011;17836;50.948;3.946;2022-09-12T01:32:53;9.82;;;8.82;;
31210;SDS011;17836;50.948;3.946;2022-09-12T01:38:11;10.27;;;9.40;;
31210;SDS011;17836;50.948;3.946;2022-09-12T01:40:44;10.77;;;9.63;;
31210;SDS011;17836;50.948;3.946;2022-09-12T01:45:45;10.23;;;9.40;;
31210;SDS011;17836;50.948;3.946;2022-09-12T01:48:18;10.15;;;8.25;;
31210;SDS011;17836;50.948;3.946;2022-09-12T01:51:19;10.15;;;9.25;;
31210;SDS011;17836;50.948;3.946;2022-09-12T01:53:37;10.98;;;10.07;;
31210;SDS011;17836;50.948;3.946;2022-09-12T01:56:11;11.00;;;9.88;;
31210;SDS011;17836;50.948;3.946;2022-09-12T01:58:42;10.73;;;9.65;;
31210;SDS011;17836;50.948;3.946;2022-09-12T02:09:33;10.15;;;9.35;;
31210;SDS011;17836;50.948;3.946;2022-09-12T02:12:00;11.13;;;10.00;;
31210;SDS011;17836;50.948;3.946;2022-09-12T02:14:26;10.30;;;9.35;;
31210;SDS011;17836;50.948;3.946;2022-09-12T02:16:57;12.30;;;10.85;;
31210;SDS011;17836;50.948;3.946;2022-09-12T02:19:24;11.43;;;9.32;;
31210;SDS011;17836;50.948;3.946;2022-09-12T02:21:55;12.13;;;11.02;;
31210;SDS011;17836;50.948;3.946;2022-09-12T02:24:23;12.55;;;11.45;;
31210;SDS011;17836;50.948;3.946;2022-09-12T02:26:51;12.48;;;11.38;;
31210;SDS011;17836;50.948;3.946;2022-09-12T02:29:19;12.85;;;11.55;;
31210;SDS011;17836;50.948;3.946;2022-09-12T02:32:04;14.00;;;12.60;;
31210;SDS011;17836;50.948;3.946;2022-09-12T02:39:57;14.25;;;11.88;;
31210;SDS011;17836;50.948;3.946;2022-09-12T02:42:23;13.65;;;12.32;;
31210;SDS011;17836;50.948;3.946;2022-09-12T02:44:49;12.65;;;11.48;;
31210;SDS011;17836;50.948;3.946;2022-09-12T02:50:09;14.60;;;11.07;;
31210;SDS011;17836;50.948;3.946;2022-09-12T02:52:35;13.90;;;12.57;;
31210;SDS011;17836;50.948;3.946;2022-09-12T02:55:01;14.03;;;12.67;;
31210;SDS011;17836;50.948;3.946;2022-09-12T02:57:27;12.02;;;10.80;;
31210;SDS011;17836;50.948;3.946;2022-09-12T02:59:53;13.50;;;11.40;;
31210;SDS011;17836;50.948;3.946;2022-09-12T03:05:20;12.90;;;11.52;;
31210;SDS011;17836;50.948;3.946;2022-09-12T03:10:38;13.27;;;11.60;;
31210;SDS011;17836;50.948;3.946;2022-09-12T03:15:57;13.00;;;11.77;;
31210;SDS011;17836;50.948;3.946;2022-09-12T03:18:29;16.65;;;13.27;;
31210;SDS011;17836;50.948;3.946;2022-09-12T03:21:01;14.52;;;13.05;;
31210;SDS011;17836;50.948;3.946;2022-09-12T03:29:11;15.43;;;12.52;;
31210;SDS011;17836;50.948;3.946;2022-09-12T03:31:37;15.05;;;13.27;;
31210;SDS011;17836;50.948;3.946;2022-09-12T03:34:11;16.60;;;14.15;;
31210;SDS011;17836;50.948;3.946;2022-09-12T03:36:39;16.60;;;12.90;;
31210;SDS011;17836;50.948;3.946;2022-09-12T03:39:05;14.82;;;12.70;;
31210;SDS011;17836;50.948;3.946;2022-09-12T03:41:31;14.98;;;13.13;;
31210;SDS011;17836;50.948;3.946;2022-09-12T03:43:56;14.03;;;12.73;;
31210;SDS011;17836;50.948;3.946;2022-09-12T03:46:21;15.20;;;13.57;;
31210;SDS011;17836;50.948;3.946;2022-09-12T03:48:47;17.97;;;13.97;;
31210;SDS011;17836;50.948;3.946;2022-09-12T03:51:12;16.20;;;13.98;;
31210;SDS011;17836;50.948;3.946;2022-09-12T03:53:37;17.90;;;13.17;;
31210;SDS011;17836;50.948;3.946;2022-09-12T03:56:06;16.20;;;14.40;;
31210;SDS011;17836;50.948;3.946;2022-09-12T03:58:33;14.73;;;12.45;;
31210;SDS011;17836;50.948;3.946;2022-09-12T04:00:59;16.75;;;13.98;;
31210;SDS011;17836;50.948;3.946;2022-09-12T04:03:25;18.65;;;13.55;;
31210;SDS011;17836;50.948;3.946;2022-09-12T04:05:50;15.10;;;13.63;;
31210;SDS011;17836;50.948;3.946;2022-09-12T04:08:15;16.10;;;12.97;;
31210;SDS011;17836;50.948;3.946;2022-09-12T04:10:41;15.00;;;13.02;;
31210;SDS011;17836;50.948;3.946;2022-09-12T04:13:06;16.43;;;13.03;;
31210;SDS011;17836;50.948;3.946;2022-09-12T04:15:32;19.42;;;14.57;;
31210;SDS011;17836;50.948;3.946;2022-09-12T04:17:57;16.95;;;15.20;;
31210;SDS011;17836;50.948;3.946;2022-09-12T04:20:22;16.93;;;14.83;;
31210;SDS011;17836;50.948;3.946;2022-09-12T04:22:48;18.17;;;16.27;;
31210;SDS011;17836;50.948;3.946;2022-09-12T04:25:13;16.13;;;14.00;;
31210;SDS011;17836;50.948;3.946;2022-09-12T04:27:39;16.58;;;14.35;;
31210;SDS011;17836;50.948;3.946;2022-09-12T04:30:05;16.48;;;14.45;;
31210;SDS011;17836;50.948;3.946;2022-09-12T04:32:30;19.15;;;14.57;;
31210;SDS011;17836;50.948;3.946;2022-09-12T04:34:56;20.38;;;15.25;;
31210;SDS011;17836;50.948;3.946;2022-09-12T04:37:21;23.73;;;16.17;;
31210;SDS011;17836;50.948;3.946;2022-09-12T04:39:47;17.45;;;15.32;;
31210;SDS011;17836;50.948;3.946;2022-09-12T04:42:13;18.42;;;14.80;;
31210;SDS011;17836;50.948;3.946;2022-09-12T04:44:38;16.63;;;13.90;;
31210;SDS011;17836;50.948;3.946;2022-09-12T04:47:04;19.03;;;14.77;;
31210;SDS011;17836;50.948;3.946;2022-09-12T04:49:29;19.77;;;15.48;;
31210;SDS011;17836;50.948;3.946;2022-09-12T04:51:54;18.33;;;14.20;;
31210;SDS011;17836;50.948;3.946;2022-09-12T04:54:20;19.05;;;14.20;;
31210;SDS011;17836;50.948;3.946;2022-09-12T04:56:46;17.50;;;13.63;;
31210;SDS011;17836;50.948;3.946;2022-09-12T04:59:13;15.88;;;13.98;;
31210;SDS011;17836;50.948;3.946;2022-09-12T05:01:39;17.40;;;15.07;;
31210;SDS011;17836;50.948;3.946;2022-09-12T05:04:05;16.45;;;13.23;;
31210;SDS011;17836;50.948;3.946;2022-09-12T05:06:32;17.05;;;13.65;;
31210;SDS011;17836;50.948;3.946;2022-09-12T05:08:58;15.18;;;13.05;;
31210;SDS011;17836;50.948;3.946;2022-09-12T05:11:26;17.52;;;13.27;;
31210;SDS011;17836;50.948;3.946;2022-09-12T05:13:52;16.85;;;13.93;;
31210;SDS011;17836;50.948;3.946;2022-09-12T05:16:17;21.97;;;14.87;;
31210;SDS011;17836;50.948;3.946;2022-09-12T05:18:44;18.27;;;13.32;;
31210;SDS011;17836;50.948;3.946;2022-09-12T05:21:11;25.30;;;15.15;;
31210;SDS011;17836;50.948;3.946;2022-09-12T05:23:36;18.60;;;13.93;;
31210;SDS011;17836;50.948;3.946;2022-09-12T05:26:02;21.88;;;14.88;;
31210;SDS011;17836;50.948;3.946;2022-09-12T05:28:30;19.73;;;14.98;;
31210;SDS011;17836;50.948;3.946;2022-09-12T05:31:03;19.02;;;15.27;;
31210;SDS011;17836;50.948;3.946;2022-09-12T05:33:29;17.95;;;15.00;;
31210;SDS011;17836;50.948;3.946;2022-09-12T05:35:55;16.70;;;14.63;;
31210;SDS011;17836;50.948;3.946;2022-09-12T05:38:20;19.58;;;15.10;;
31210;SDS011;17836;50.948;3.946;2022-09-12T05:40:47;21.52;;;15.82;;
31210;SDS011;17836;50.948;3.946;2022-09-12T05:43:13;19.17;;;14.35;;
31210;SDS011;17836;50.948;3.946;2022-09-12T05:45:39;16.73;;;14.88;;
31210;SDS011;17836;50.948;3.946;2022-09-12T05:50:40;16.58;;;14.20;;
31210;SDS011;17836;50.948;3.946;2022-09-12T05:53:06;22.02;;;14.88;;
31210;SDS011;17836;50.948;3.946;2022-09-12T05:55:35;27.27;;;15.82;;
31210;SDS011;17836;50.948;3.946;2022-09-12T05:58:00;20.98;;;14.82;;
31210;SDS011;17836;50.948;3.946;2022-09-12T06:00:25;21.23;;;15.93;;
31210;SDS011;17836;50.948;3.946;2022-09-12T06:02:51;19.50;;;15.60;;
31210;SDS011;17836;50.948;3.946;2022-09-12T06:05:17;22.20;;;16.27;;
31210;SDS011;17836;50.948;3.946;2022-09-12T06:07:44;19.90;;;16.07;;
31210;SDS011;17836;50.948;3.946;2022-09-12T06:10:09;23.45;;;17.45;;
31210;SDS011;17836;50.948;3.946;2022-09-12T06:12:35;21.90;;;17.80;;
31210;SDS011;17836;50.948;3.946;2022-09-12T06:15:01;18.77;;;16.70;;
31210;SDS011;17836;50.948;3.946;2022-09-12T06:17:26;24.60;;;17.30;;
31210;SDS011;17836;50.948;3.946;2022-09-12T06:19:52;21.13;;;16.80;;
31210;SDS011;17836;50.948;3.946;2022-09-12T06:22:18;23.67;;;17.42;;
31210;SDS011;17836;50.948;3.946;2022-09-12T06:24:43;22.73;;;16.20;;
31210;SDS011;17836;50.948;3.946;2022-09-12T06:27:09;24.83;;;17.20;;
31210;SDS011;17836;50.948;3.946;2022-09-12T06:29:34;20.50;;;17.37;;
31210;SDS011;17836;50.948;3.946;2022-09-12T06:31:59;20.50;;;17.13;;
31210;SDS011;17836;50.948;3.946;2022-09-12T06:34:24;21.23;;;17.57;;
31210;SDS011;17836;50.948;3.946;2022-09-12T06:36:51;20.48;;;16.55;;
31210;SDS011;17836;50.948;3.946;2022-09-12T06:39:17;22.92;;;17.58;;
31210;SDS011;17836;50.948;3.946;2022-09-12T06:41:43;22.92;;;17.52;;
31210;SDS011;17836;50.948;3.946;2022-09-12T06:44:09;22.33;;;16.48;;
31210;SDS011;17836;50.948;3.946;2022-09-12T06:46:36;24.50;;;17.02;;
31210;SDS011;17836;50.948;3.946;2022-09-12T06:49:01;20.80;;;15.80;;
31210;SDS011;17836;50.948;3.946;2022-09-12T06:51:27;21.45;;;15.43;;
31210;SDS011;17836;50.948;3.946;2022-09-12T06:53:56;19.75;;;15.25;;
31210;SDS011;17836;50.948;3.946;2022-09-12T06:56:22;20.95;;;16.58;;
31210;SDS011;17836;50.948;3.946;2022-09-12T06:58:48;20.88;;;16.30;;
31210;SDS011;17836;50.948;3.946;2022-09-12T07:01:15;17.40;;;14.68;;
31210;SDS011;17836;50.948;3.946;2022-09-12T07:03:41;18.55;;;14.52;;
31210;SDS011;17836;50.948;3.946;2022-09-12T07:06:11;15.95;;;13.88;;
31210;SDS011;17836;50.948;3.946;2022-09-12T07:08:37;17.10;;;13.82;;
31210;SDS011;17836;50.948;3.946;2022-09-12T07:11:16;18.85;;;12.70;;
31210;SDS011;17836;50.948;3.946;2022-09-12T07:13:41;13.77;;;12.13;;
31210;SDS011;17836;50.948;3.946;2022-09-12T07:16:07;12.80;;;11.70;;
31210;SDS011;17836;50.948;3.946;2022-09-12T07:18:34;13.07;;;11.23;;
31210;SDS011;17836;50.948;3.946;2022-09-12T07:21:00;12.57;;;10.68;;
31210;SDS011;17836;50.948;3.946;2022-09-12T07:23:26;11.52;;;10.30;;
31210;SDS011;17836;50.948;3.946;2022-09-12T07:25:55;12.02;;;10.85;;
31210;SDS011;17836;50.948;3.946;2022-09-12T07:28:21;11.88;;;10.77;;
31210;SDS011;17836;50.948;3.946;2022-09-12T07:30:47;13.65;;;9.88;;
31210;SDS011;17836;50.948;3.946;2022-09-12T07:33:12;12.40;;;9.67;;
31210;SDS011;17836;50.948;3.946;2022-09-12T07:35:38;11.05;;;10.00;;
31210;SDS011;17836;50.948;3.946;2022-09-12T07:38:03;12.43;;;11.07;;
31210;SDS011;17836;50.948;3.946;2022-09-12T07:40:28;13.27;;;10.77;;
31210;SDS011;17836;50.948;3.946;2022-09-12T07:42:53;17.23;;;12.07;;
31210;SDS011;17836;50.948;3.946;2022-09-12T07:45:19;15.10;;;11.30;;
31210;SDS011;17836;50.948;3.946;2022-09-12T07:47:44;13.87;;;10.83;;
31210;SDS011;17836;50.948;3.946;2022-09-12T07:50:10;14.95;;;12.00;;
31210;SDS011;17836;50.948;3.946;2022-09-12T07:52:35;14.80;;;11.53;;
31210;SDS011;17836;50.948;3.946;2022-09-12T07:55:00;12.83;;;10.93;;
31210;SDS011;17836;50.948;3.946;2022-09-12T07:57:26;11.85;;;10.48;;
31210;SDS011;17836;50.948;3.946;2022-09-12T07:59:51;13.80;;;10.63;;
31210;SDS011;17836;50.948;3.946;2022-09-12T08:02:17;13.33;;;10.83;;
31210;SDS011;17836;50.948;3.946;2022-09-12T08:04:42;15.20;;;9.73;;
31210;SDS011;17836;50.948;3.946;2022-09-12T08:07:09;12.85;;;10.65;;
31210;SDS011;17836;50.948;3.946;2022-09-12T08:09:36;13.38;;;9.70;;
31210;SDS011;17836;50.948;3.946;2022-09-12T08:12:01;12.65;;;9.40;;
31210;SDS011;17836;50.948;3.946;2022-09-12T08:14:27;12.20;;;9.55;;
31210;SDS011;17836;50.948;3.946;2022-09-12T08:16:53;15.77;;;9.77;;
31210;SDS011;17836;50.948;3.946;2022-09-12T08:19:18;10.27;;;9.13;;
31210;SDS011;17836;50.948;3.946;2022-09-12T08:21:46;11.38;;;8.57;;
31210;SDS011;17836;50.948;3.946;2022-09-12T08:24:12;11.45;;;9.02;;
31210;SDS011;17836;50.948;3.946;2022-09-12T08:26:37;9.57;;;8.53;;
31210;SDS011;17836;50.948;3.946;2022-09-12T08:29:03;10.75;;;8.48;;
31210;SDS011;17836;50.948;3.946;2022-09-12T08:31:28;8.10;;;6.95;;
31210;SDS011;17836;50.948;3.946;2022-09-12T08:33:56;8.90;;;8.00;;
31210;SDS011;17836;50.948;3.946;2022-09-12T08:36:23;8.40;;;7.63;;
31210;SDS011;17836;50.948;3.946;2022-09-12T08:38:50;10.50;;;7.45;;
31210;SDS011;17836;50.948;3.946;2022-09-12T08:48:58;7.70;;;7.00;;
31210;SDS011;17836;50.948;3.946;2022-09-12T08:51:25;7.40;;;6.05;;
31210;SDS011;17836;50.948;3.946;2022-09-12T08:53:52;7.78;;;6.93;;
31210;SDS011;17836;50.948;3.946;2022-09-12T08:56:20;7.00;;;6.35;;
31210;SDS011;17836;50.948;3.946;2022-09-12T08:58:46;8.30;;;6.68;;
31210;SDS011;17836;50.948;3.946;2022-09-12T09:08:54;5.15;;;4.63;;
31210;SDS011;17836;50.948;3.946;2022-09-12T09:16:37;6.70;;;4.88;;
31210;SDS011;17836;50.948;3.946;2022-09-12T09:19:19;5.70;;;5.07;;
31210;SDS011;17836;50.948;3.946;2022-09-12T09:24:14;5.45;;;4.63;;
31210;SDS011;17836;50.948;3.946;2022-09-12T09:29:19;8.57;;;5.20;;
31210;SDS011;17836;50.948;3.946;2022-09-12T09:31:48;5.38;;;4.30;;
31210;SDS011;17836;50.948;3.946;2022-09-12T09:34:23;4.93;;;4.43;;
31210;SDS011;17836;50.948;3.946;2022-09-12T09:44:42;6.95;;;3.45;;
31210;SDS011;17836;50.948;3.946;2022-09-12T09:47:09;6.78;;;3.75;;
31210;SDS011;17836;50.948;3.946;2022-09-12T09:49:34;3.65;;;3.35;;
31210;SDS011;17836;50.948;3.946;2022-09-12T09:52:00;4.28;;;3.88;;
31210;SDS011;17836;50.948;3.946;2022-09-12T09:54:32;8.32;;;3.30;;
31210;SDS011;17836;50.948;3.946;2022-09-12T09:56:58;5.13;;;3.35;;
31210;SDS011;17836;50.948;3.946;2022-09-12T10:01:57;5.57;;;3.88;;
31210;SDS011;17836;50.948;3.946;2022-09-12T10:04:30;3.97;;;3.60;;
31210;SDS011;17836;50.948;3.946;2022-09-12T10:06:58;3.75;;;3.45;;
31210;SDS011;17836;50.948;3.946;2022-09-12T10:11:52;6.65;;;3.40;;
31210;SDS011;17836;50.948;3.946;2022-09-12T10:14:34;5.30;;;3.85;;
31210;SDS011;17836;50.948;3.946;2022-09-12T10:17:01;4.63;;;2.80;;
31210;SDS011;17836;50.948;3.946;2022-09-12T10:19:37;3.65;;;3.35;;
31210;SDS011;17836;50.948;3.946;2022-09-12T10:22:04;3.30;;;2.60;;
31210;SDS011;17836;50.948;3.946;2022-09-12T10:24:31;4.63;;;2.65;;
31210;SDS011;17836;50.948;3.946;2022-09-12T10:29:39;5.00;;;2.70;;
31210;SDS011;17836;50.948;3.946;2022-09-12T10:32:12;2.28;;;2.00;;
31210;SDS011;17836;50.948;3.946;2022-09-12T10:34:43;4.88;;;2.47;;
31210;SDS011;17836;50.948;3.946;2022-09-12T10:37:14;5.32;;;1.92;;
31210;SDS011;17836;50.948;3.946;2022-09-12T10:39:41;3.65;;;1.95;;
31210;SDS011;17836;50.948;3.946;2022-09-12T10:42:14;3.63;;;1.50;;
31210;SDS011;17836;50.948;3.946;2022-09-12T10:44:39;8.05;;;2.28;;
31210;SDS011;17836;50.948;3.946;2022-09-12T10:47:21;2.83;;;1.95;;
31210;SDS011;17836;50.948;3.946;2022-09-12T10:49:46;4.03;;;1.55;;
31210;SDS011;17836;50.948;3.946;2022-09-12T10:52:16;4.28;;;2.03;;
31210;SDS011;17836;50.948;3.946;2022-09-12T10:54:42;3.00;;;2.25;;
31210;SDS011;17836;50.948;3.946;2022-09-12T11:02:25;2.33;;;2.00;;
31210;SDS011;17836;50.948;3.946;2022-09-12T11:04:54;3.00;;;1.98;;
31210;SDS011;17836;50.948;3.946;2022-09-12T11:17:36;4.68;;;1.40;;
31210;SDS011;17836;50.948;3.946;2022-09-12T11:30:12;1.73;;;1.60;;
31210;SDS011;17836;50.948;3.946;2022-09-12T11:40:31;1.73;;;1.60;;
31210;SDS011;17836;50.948;3.946;2022-09-12T11:43:02;6.13;;;1.55;;
31210;SDS011;17836;50.948;3.946;2022-09-12T11:45:40;4.13;;;1.52;;
31210;SDS011;17836;50.948;3.946;2022-09-12T11:48:06;2.45;;;1.45;;
31210;SDS011;17836;50.948;3.946;2022-09-12T11:50:34;3.08;;;1.05;;
31210;SDS011;17836;50.948;3.946;2022-09-12T11:53:14;1.35;;;1.25;;
31210;SDS011;17836;50.948;3.946;2022-09-12T11:55:51;3.72;;;1.20;;
31210;SDS011;17836;50.948;3.946;2022-09-12T11:58:16;3.33;;;1.20;;
31210;SDS011;17836;50.948;3.946;2022-09-12T12:00:45;2.70;;;1.65;;
31210;SDS011;17836;50.948;3.946;2022-09-12T12:03:19;2.13;;;1.52;;
31210;SDS011;17836;50.948;3.946;2022-09-12T12:05:53;3.70;;;1.45;;
31210;SDS011;17836;50.948;3.946;2022-09-12T12:08:23;2.40;;;1.48;;
31210;SDS011;17836;50.948;3.946;2022-09-12T12:13:22;2.37;;;1.67;;
31210;SDS011;17836;50.948;3.946;2022-09-12T12:16:01;1.83;;;1.30;;
31210;SDS011;17836;50.948;3.946;2022-09-12T12:18:29;1.85;;;1.42;;
31210;SDS011;17836;50.948;3.946;2022-09-12T12:20:55;4.20;;;1.83;;
31210;SDS011;17836;50.948;3.946;2022-09-12T12:23:39;3.58;;;2.20;;
31210;SDS011;17836;50.948;3.946;2022-09-12T12:26:08;1.25;;;1.00;;
31210;SDS011;17836;50.948;3.946;2022-09-12T12:31:16;3.43;;;1.30;;
31210;SDS011;17836;50.948;3.946;2022-09-12T12:36:08;2.90;;;1.17;;
31210;SDS011;17836;50.948;3.946;2022-09-12T12:38:34;1.88;;;1.52;;
31210;SDS011;17836;50.948;3.946;2022-09-12T12:43:40;2.90;;;2.00;;
31210;SDS011;17836;50.948;3.946;2022-09-12T12:46:07;2.00;;;1.77;;
31210;SDS011;17836;50.948;3.946;2022-09-12T12:48:43;3.00;;;1.63;;
31210;SDS011;17836;50.948;3.946;2022-09-12T12:51:25;4.43;;;1.77;;
31210;SDS011;17836;50.948;3.946;2022-09-12T12:53:51;4.50;;;1.83;;
31210;SDS011;17836;50.948;3.946;2022-09-12T12:59:01;3.00;;;1.73;;
31210;SDS011;17836;50.948;3.946;2022-09-12T13:01:27;3.55;;;1.55;;
31210;SDS011;17836;50.948;3.946;2022-09-12T13:04:03;2.30;;;1.48;;
31210;SDS011;17836;50.948;3.946;2022-09-12T13:08:58;2.37;;;1.63;;
31210;SDS011;17836;50.948;3.946;2022-09-12T13:11:32;3.35;;;1.38;;
31210;SDS011;17836;50.948;3.946;2022-09-12T13:13:59;2.75;;;1.02;;
31210;SDS011;17836;50.948;3.946;2022-09-12T13:16:35;2.90;;;1.75;;
31210;SDS011;17836;50.948;3.946;2022-09-12T13:19:13;2.50;;;1.70;;
31210;SDS011;17836;50.948;3.946;2022-09-12T13:21:38;5.72;;;1.50;;
31210;SDS011;17836;50.948;3.946;2022-09-12T13:24:19;3.17;;;1.58;;
31210;SDS011;17836;50.948;3.946;2022-09-12T13:26:46;2.05;;;1.40;;
31210;SDS011;17836;50.948;3.946;2022-09-12T13:29:14;2.13;;;1.25;;
31210;SDS011;17836;50.948;3.946;2022-09-12T13:31:40;4.97;;;1.45;;
31210;SDS011;17836;50.948;3.946;2022-09-12T13:34:06;2.50;;;1.20;;
31210;SDS011;17836;50.948;3.946;2022-09-12T13:39:25;1.63;;;0.90;;
31210;SDS011;17836;50.948;3.946;2022-09-12T13:41:55;3.17;;;1.13;;
31210;SDS011;17836;50.948;3.946;2022-09-12T13:44:23;1.75;;;1.27;;
31210;SDS011;17836;50.948;3.946;2022-09-12T13:46:49;6.60;;;1.67;;
31210;SDS011;17836;50.948;3.946;2022-09-12T13:52:07;1.73;;;1.10;;
31210;SDS011;17836;50.948;3.946;2022-09-12T13:54:35;2.70;;;1.17;;
31210;SDS011;17836;50.948;3.946;2022-09-12T13:57:02;2.28;;;1.23;;
31210;SDS011;17836;50.948;3.946;2022-09-12T13:59:28;1.77;;;1.10;;
31210;SDS011;17836;50.948;3.946;2022-09-12T14:02:01;2.50;;;1.00;;
31210;SDS011;17836;50.948;3.946;2022-09-12T14:04:26;3.00;;;1.20;;
31210;SDS011;17836;50.948;3.946;2022-09-12T14:07:14;1.08;;;0.98;;
31210;SDS011;17836;50.948;3.946;2022-09-12T14:09:43;1.25;;;0.80;;
31210;SDS011;17836;50.948;3.946;2022-09-12T14:14:45;3.13;;;1.17;;
31210;SDS011;17836;50.948;3.946;2022-09-12T14:17:22;1.80;;;0.80;;
31210;SDS011;17836;50.948;3.946;2022-09-12T14:19:48;2.60;;;0.73;;
31210;SDS011;17836;50.948;3.946;2022-09-12T14:22:13;2.60;;;0.73;;
31210;SDS011;17836;50.948;3.946;2022-09-12T14:24:45;2.03;;;0.82;;
31210;SDS011;17836;50.948;3.946;2022-09-12T14:27:14;8.13;;;1.13;;
31210;SDS011;17836;50.948;3.946;2022-09-12T14:29:40;1.55;;;0.80;;
31210;SDS011;17836;50.948;3.946;2022-09-12T14:32:12;2.05;;;0.98;;
31210;SDS011;17836;50.948;3.946;2022-09-12T14:34:41;2.20;;;0.82;;
31210;SDS011;17836;50.948;3.946;2022-09-12T14:37:06;2.30;;;0.82;;
31210;SDS011;17836;50.948;3.946;2022-09-12T14:39:32;1.52;;;0.73;;
31210;SDS011;17836;50.948;3.946;2022-09-12T14:42:03;0.70;;;0.70;;
31210;SDS011;17836;50.948;3.946;2022-09-12T14:44:29;2.03;;;0.60;;
31210;SDS011;17836;50.948;3.946;2022-09-12T14:47:05;3.80;;;1.10;;
31210;SDS011;17836;50.948;3.946;2022-09-12T14:49:34;4.15;;;0.90;;
31210;SDS011;17836;50.948;3.946;2022-09-12T14:52:01;1.50;;;0.80;;
31210;SDS011;17836;50.948;3.946;2022-09-12T14:56:53;1.13;;;0.93;;
31210;SDS011;17836;50.948;3.946;2022-09-12T14:59:24;1.70;;;0.80;;
31210;SDS011;17836;50.948;3.946;2022-09-12T15:07:40;2.73;;;1.13;;
31210;SDS011;17836;50.948;3.946;2022-09-12T15:12:31;0.90;;;0.80;;
31210;SDS011;17836;50.948;3.946;2022-09-12T15:15:12;1.90;;;1.17;;
31210;SDS011;17836;50.948;3.946;2022-09-12T15:17:38;1.50;;;0.90;;
31210;SDS011;17836;50.948;3.946;2022-09-12T15:20:03;2.03;;;0.80;;
31210;SDS011;17836;50.948;3.946;2022-09-12T15:22:29;2.33;;;1.17;;
31210;SDS011;17836;50.948;3.946;2022-09-12T15:24:56;2.40;;;1.02;;
31210;SDS011;17836;50.948;3.946;2022-09-12T15:27:24;2.90;;;1.10;;
31210;SDS011;17836;50.948;3.946;2022-09-12T15:29:50;7.55;;;1.38;;
31210;SDS011;17836;50.948;3.946;2022-09-12T15:32:26;1.42;;;0.73;;
31210;SDS011;17836;50.948;3.946;2022-09-12T15:34:52;3.08;;;0.90;;
31210;SDS011;17836;50.948;3.946;2022-09-12T15:37:21;1.23;;;0.60;;
31210;SDS011;17836;50.948;3.946;2022-09-12T15:39:47;2.03;;;0.90;;
31210;SDS011;17836;50.948;3.946;2022-09-12T15:42:12;1.83;;;1.00;;
31210;SDS011;17836;50.948;3.946;2022-09-12T15:44:38;0.80;;;0.80;;
31210;SDS011;17836;50.948;3.946;2022-09-12T15:47:04;3.63;;;1.20;;
31210;SDS011;17836;50.948;3.946;2022-09-12T15:49:29;2.22;;;1.20;;
31210;SDS011;17836;50.948;3.946;2022-09-12T15:51:55;2.10;;;0.90;;
31210;SDS011;17836;50.948;3.946;2022-09-12T15:54:20;2.30;;;1.00;;
31210;SDS011;17836;50.948;3.946;2022-09-12T15:56:45;3.77;;;1.00;;
31210;SDS011;17836;50.948;3.946;2022-09-12T15:59:11;1.95;;;0.90;;
31210;SDS011;17836;50.948;3.946;2022-09-12T16:01:36;19.92;;;1.42;;
31210;SDS011;17836;50.948;3.946;2022-09-12T16:04:01;1.47;;;0.87;;
31210;SDS011;17836;50.948;3.946;2022-09-12T16:06:27;2.95;;;1.00;;
31210;SDS011;17836;50.948;3.946;2022-09-12T16:08:54;2.33;;;0.90;;
31210;SDS011;17836;50.948;3.946;2022-09-12T16:11:21;11.00;;;1.45;;
31210;SDS011;17836;50.948;3.946;2022-09-12T16:13:47;1.52;;;0.88;;
31210;SDS011;17836;50.948;3.946;2022-09-12T16:16:13;2.90;;;1.00;;
31210;SDS011;17836;50.948;3.946;2022-09-12T16:18:38;3.07;;;1.20;;
31210;SDS011;17836;50.948;3.946;2022-09-12T16:21:04;2.55;;;0.90;;
31210;SDS011;17836;50.948;3.946;2022-09-12T16:23:29;2.65;;;0.70;;
31210;SDS011;17836;50.948;3.946;2022-09-12T16:26:02;2.47;;;0.80;;
31210;SDS011;17836;50.948;3.946;2022-09-12T16:28:28;2.45;;;0.80;;
31210;SDS011;17836;50.948;3.946;2022-09-12T16:30:57;5.83;;;1.23;;
31210;SDS011;17836;50.948;3.946;2022-09-12T16:33:23;2.05;;;0.90;;
31210;SDS011;17836;50.948;3.946;2022-09-12T16:35:48;3.33;;;1.10;;
31210;SDS011;17836;50.948;3.946;2022-09-12T16:38:15;1.50;;;0.70;;
31210;SDS011;17836;50.948;3.946;2022-09-12T16:40:40;1.55;;;1.45;;
31210;SDS011;17836;50.948;3.946;2022-09-12T16:43:05;2.90;;;0.77;;
31210;SDS011;17836;50.948;3.946;2022-09-12T16:45:31;2.25;;;0.82;;
31210;SDS011;17836;50.948;3.946;2022-09-12T16:47:57;2.58;;;0.80;;
31210;SDS011;17836;50.948;3.946;2022-09-12T16:50:23;3.17;;;0.88;;
31210;SDS011;17836;50.948;3.946;2022-09-12T16:52:48;1.20;;;0.87;;
31210;SDS011;17836;50.948;3.946;2022-09-12T16:55:13;4.90;;;1.40;;
31210;SDS011;17836;50.948;3.946;2022-09-12T16:57:39;1.52;;;1.10;;
31210;SDS011;17836;50.948;3.946;2022-09-12T17:00:04;1.50;;;0.90;;
31210;SDS011;17836;50.948;3.946;2022-09-12T17:02:31;1.45;;;1.00;;
31210;SDS011;17836;50.948;3.946;2022-09-12T17:04:56;1.83;;;1.10;;
31210;SDS011;17836;50.948;3.946;2022-09-12T17:07:22;2.35;;;1.00;;
31210;SDS011;17836;50.948;3.946;2022-09-12T17:09:47;1.23;;;0.77;;
31210;SDS011;17836;50.948;3.946;2022-09-12T17:12:13;3.15;;;0.70;;
31210;SDS011;17836;50.948;3.946;2022-09-12T17:14:38;3.13;;;1.10;;
31210;SDS011;17836;50.948;3.946;2022-09-12T17:17:03;1.37;;;0.67;;